Time;durP1;ratioP1;P1;durP2;ratioP2;P2;SDS_P1;SDS_P2;PMS_P1;PMS_P2;Temp;Humidity;BMP_temperature;BMP_pressure;BME280_temperature;BME280_humidity;BME280_pressure;Samples;Min_cycle;Max_cycle;Signal;HPM_P1;HPM_P2
2021/12/14 00:03:42;;;;;;;339.40;130.90;;;;;;;0.60;87.93;99612.65;420021;1314;97939;-40
2021/12/14 00:13:57;;;;;;;289.60;121.30;;;;;;;0.40;87.50;99610.51;420019;1313;110894;-41
2021/12/14 00:44:24;;;;;;;286.10;122.40;;;;;;;0.47;87.95;99625.52;419799;1313;111737;-41
2021/12/14 00:54:31;;;;;;;358.10;141.50;;;;;;;0.44;88.00;99621.27;420004;1313;108831;-40
2021/12/14 01:04:42;;;;;;;325.70;127.30;;;;;;;0.34;87.97;99616.80;419847;1314;98697;-41
2021/12/14 01:15:12;;;;;;;317.70;129.20;;;;;;;0.23;88.03;99618.90;415990;1313;5556735;-40
2021/12/14 01:25:25;;;;;;;294.70;119.60;;;;;;;0.22;88.00;99622.90;419846;1313;108867;-41
2021/12/14 01:35:36;;;;;;;268.80;112.10;;;;;;;0.30;87.93;99615.99;419986;1314;97961;-40
2021/12/14 01:45:43;;;;;;;260.60;107.70;;;;;;;0.39;87.94;99600.43;419924;1313;108997;-40
2021/12/14 01:55:54;;;;;;;237.10;101.60;;;;;;;0.49;88.10;99595.30;418250;1315;97608;-41
2021/12/14 02:06:03;;;;;;;307.90;127.50;;;;;;;0.53;88.12;99595.67;419949;1314;111037;-41
2021/12/14 02:16:13;;;;;;;317.50;127.00;;;;;;;0.42;88.04;99604.45;420183;1313;108037;-42
2021/12/14 02:26:36;;;;;;;301.00;117.60;;;;;;;0.31;88.28;99608.98;419959;1313;109015;-41
2021/12/14 02:36:48;;;;;;;263.30;111.20;;;;;;;0.33;88.15;99604.59;420007;1313;97938;-42
2021/12/14 02:46:56;;;;;;;228.00;102.10;;;;;;;0.49;88.07;99603.42;420628;1305;111171;-41
2021/12/14 02:57:08;;;;;;;223.20;97.80;;;;;;;0.70;88.21;99598.55;419981;1314;108804;-40
2021/12/14 03:07:17;;;;;;;287.70;113.70;;;;;;;0.83;88.37;99604.63;420320;1314;97958;-41
2021/12/14 03:17:25;;;;;;;259.10;103.10;;;;;;;0.77;88.16;99603.45;420288;1313;111224;-40
2021/12/14 03:27:34;;;;;;;276.30;106.30;;;;;;;0.62;87.95;99596.53;420259;1314;108979;-40
2021/12/14 03:37:41;;;;;;;199.50;84.50;;;;;;;0.49;88.01;99603.87;420090;1313;109049;-41
2021/12/14 03:47:52;;;;;;;207.40;85.10;;;;;;;0.43;87.88;99597.56;420080;1313;97942;-40
2021/12/14 03:58:00;;;;;;;207.10;88.60;;;;;;;0.46;88.13;99594.20;420097;1314;109446;-40
2021/12/14 04:08:06;;;;;;;184.30;81.30;;;;;;;0.50;88.16;99588.77;420037;1313;98001;-41
2021/12/14 04:18:14;;;;;;;258.10;104.70;;;;;;;0.48;88.27;99589.35;420362;1313;111149;-40
2021/12/14 04:28:26;;;;;;;260.20;105.70;;;;;;;0.38;88.38;99585.27;420062;1313;109024;-41
2021/12/14 04:38:42;;;;;;;176.00;84.80;;;;;;;0.32;88.42;99577.46;420303;1313;97963;-40
2021/12/14 04:59:23;;;;;;;191.90;87.30;;;;;;;0.41;88.40;99590.18;419967;1314;108882;-41
2021/12/14 05:09:36;;;;;;;182.70;82.40;;;;;;;0.45;88.32;99591.67;418915;1315;97665;-40
2021/12/14 05:19:46;;;;;;;175.10;84.50;;;;;;;0.54;88.41;99592.92;420232;1313;108419;-40
2021/12/14 05:29:53;;;;;;;229.50;102.90;;;;;;;0.65;88.49;99586.38;420208;1314;98600;-41
2021/12/14 05:40:05;;;;;;;232.90;97.20;;;;;;;0.54;88.50;99592.59;420093;1314;98646;-40
2021/12/14 05:50:14;;;;;;;234.70;100.20;;;;;;;0.38;88.67;99580.73;420257;1314;111168;-40
2021/12/14 06:00:23;;;;;;;174.70;83.50;;;;;;;0.39;88.54;99583.54;420155;1314;107880;-40
2021/12/14 06:10:31;;;;;;;176.90;88.70;;;;;;;0.44;88.52;99562.42;420043;1313;97697;-40
2021/12/14 06:20:39;;;;;;;154.10;75.90;;;;;;;0.56;88.57;99565.33;420161;1314;110975;-39
2021/12/14 06:30:46;;;;;;;163.10;77.90;;;;;;;0.67;88.64;99567.27;420127;1314;107839;-40
2021/12/14 06:40:52;;;;;;;244.10;97.90;;;;;;;0.65;88.63;99561.04;419215;1314;97993;-40
2021/12/14 06:51:00;;;;;;;227.80;95.60;;;;;;;0.59;88.65;99562.63;420332;1314;111081;-41
2021/12/14 07:01:06;;;;;;;229.30;93.80;;;;;;;0.58;88.65;99561.70;420083;1313;108923;-42
2021/12/14 07:11:17;;;;;;;171.40;87.20;;;;;;;0.64;88.55;99567.34;420236;1314;97979;-40
2021/12/14 07:21:34;;;;;;;157.90;76.00;;;;;;;0.80;88.58;99574.91;419984;1315;110980;-41
2021/12/14 07:31:42;;;;;;;142.20;73.40;;;;;;;1.03;88.59;99574.60;420204;1313;109219;-40
2021/12/14 07:41:49;;;;;;;188.80;82.30;;;;;;;1.09;88.58;99574.20;419359;1313;97996;-40
2021/12/14 07:52:03;;;;;;;189.10;85.30;;;;;;;1.03;88.62;99569.09;420238;1314;111067;-41
2021/12/14 08:02:13;;;;;;;178.40;80.90;;;;;;;1.02;88.67;99570.55;420164;1313;108990;-40
2021/12/14 08:12:28;;;;;;;144.20;73.00;;;;;;;1.17;88.69;99571.03;420364;1314;97570;-41
2021/12/14 08:22:40;;;;;;;130.80;70.60;;;;;;;1.41;88.63;99575.29;420178;1313;110958;-41
2021/12/14 08:32:48;;;;;;;130.80;68.60;;;;;;;1.52;88.47;99561.04;420293;1313;107884;-40
2021/12/14 08:43:02;;;;;;;164.30;78.20;;;;;;;1.63;88.56;99559.75;420185;1313;97968;-40
2021/12/14 08:53:12;;;;;;;176.30;80.60;;;;;;;1.71;88.71;99558.66;420015;1313;111216;-40
2021/12/14 09:13:35;;;;;;;125.20;62.90;;;;;;;1.70;88.40;99558.94;420328;1314;97968;-41
2021/12/14 09:23:45;;;;;;;127.50;61.30;;;;;;;1.84;88.36;99544.17;415175;1315;5459162;-39
2021/12/14 09:33:54;;;;;;;146.80;74.20;;;;;;;2.11;88.49;99536.27;420246;1314;106864;-40
2021/12/14 09:44:02;;;;;;;161.50;70.50;;;;;;;2.55;88.57;99541.38;420433;1314;96674;-40
2021/12/14 09:54:13;;;;;;;177.80;73.70;;;;;;;2.39;88.02;99542.48;420135;1315;111108;-39
2021/12/14 10:04:27;;;;;;;187.60;75.60;;;;;;;2.49;88.22;99532.77;420524;1314;109160;-39
2021/12/14 10:14:40;;;;;;;127.40;59.90;;;;;;;2.38;87.87;99534.89;420023;1314;97964;-43
2021/12/14 10:24:48;;;;;;;130.70;62.70;;;;;;;2.38;87.93;99524.79;420207;1314;111170;-40
2021/12/14 10:35:00;;;;;;;131.10;62.80;;;;;;;2.30;88.02;99508.41;419868;1315;109548;-40
2021/12/14 10:45:09;;;;;;;147.30;66.30;;;;;;;2.25;88.16;99513.59;420236;1314;97830;-40
2021/12/14 10:55:20;;;;;;;241.70;93.00;;;;;;;2.06;88.44;99512.42;420530;1316;108770;-40
2021/12/14 11:05:27;;;;;;;232.20;90.90;;;;;;;1.94;88.60;99505.66;419318;1315;97990;-40
2021/12/14 11:15:37;;;;;;;174.90;71.00;;;;;;;1.90;88.53;99503.91;420409;1314;111117;-39
2021/12/14 11:25:47;;;;;;;153.60;63.60;;;;;;;1.94;88.39;99506.85;420047;1314;107664;-42
2021/12/14 11:36:02;;;;;;;157.20;65.10;;;;;;;1.95;88.53;99494.23;420288;1314;97925;-42
2021/12/14 11:46:08;;;;;;;141.50;61.40;;;;;;;2.05;88.57;99495.60;419133;1314;108942;-39
2021/12/14 11:56:19;;;;;;;184.60;70.20;;;;;;;2.14;88.69;99486.89;420529;1314;98080;-39
2021/12/14 12:16:56;;;;;;;130.70;59.30;;;;;;;2.16;88.49;99464.48;420221;1314;109012;-40
2021/12/14 12:37:42;;;;;;;143.90;64.00;;;;;;;2.22;88.69;99463.44;420158;1315;111194;-40
2021/12/14 12:47:49;;;;;;;233.30;96.10;;;;;;;2.32;88.57;99466.47;420145;1314;108792;-41
2021/12/14 12:58:11;;;;;;;249.60;92.60;;;;;;;2.22;88.62;99465.23;420339;1314;98234;-40
2021/12/14 13:08:21;;;;;;;221.80;85.90;;;;;;;2.07;88.70;99454.52;420369;1317;111131;-40
2021/12/14 13:18:47;;;;;;;181.60;79.50;;;;;;;1.93;88.49;99452.17;419425;1315;109187;-41
2021/12/14 13:28:56;;;;;;;198.30;81.20;;;;;;;1.99;88.44;99451.42;420339;1314;97997;-41
2021/12/14 13:39:07;;;;;;;184.60;74.80;;;;;;;2.03;88.67;99448.66;419980;1314;111070;-40
2021/12/14 13:49:14;;;;;;;195.80;78.40;;;;;;;2.03;88.54;99443.52;420307;1314;108635;-40
2021/12/14 13:59:22;;;;;;;217.60;88.70;;;;;;;1.96;88.64;99450.30;420349;1315;98198;-42
2021/12/14 14:09:31;;;;;;;292.10;107.20;;;;;;;1.89;88.79;99464.36;419293;1314;107872;-41
2021/12/14 14:19:40;;;;;;;295.60;106.50;;;;;;;1.74;88.91;99464.10;419453;1314;96776;-41
2021/12/14 14:29:50;;;;;;;261.90;100.00;;;;;;;1.65;88.84;99468.52;420346;1313;97974;-40
2021/12/14 14:40:00;;;;;;;246.70;95.10;;;;;;;1.66;88.85;99465.48;420180;1314;108880;-40
2021/12/14 14:50:26;;;;;;;245.50;94.50;;;;;;;1.70;88.85;99465.45;420592;1315;98079;-41
2021/12/14 15:00:57;;;;;;;235.70;93.50;;;;;;;1.76;89.05;99454.73;420184;1313;110715;-41
2021/12/14 15:11:02;;;;;;;324.60;113.80;;;;;;;1.76;89.02;99453.46;420376;1313;108657;-41
2021/12/14 15:21:36;;;;;;;314.40;111.70;;;;;;;1.62;89.17;99461.69;420198;1313;97977;-41
2021/12/14 15:31:47;;;;;;;282.00;108.10;;;;;;;1.58;89.03;99461.23;420304;1313;111157;-41
2021/12/14 15:41:55;;;;;;;271.10;109.10;;;;;;;1.63;89.02;99472.16;420581;1313;108867;-40
2021/12/14 15:52:02;;;;;;;269.50;105.70;;;;;;;1.67;89.11;99482.21;419932;1317;97610;-42
2021/12/14 16:02:11;;;;;;;291.20;119.70;;;;;;;1.69;89.12;99491.26;420162;1314;107995;-41
2021/12/14 16:22:48;;;;;;;372.10;128.90;;;;;;;1.63;89.28;99497.22;420142;1313;111117;-41
2021/12/14 16:33:12;;;;;;;362.80;123.80;;;;;;;1.55;89.29;99497.81;420055;1313;109077;-41
2021/12/14 16:43:22;;;;;;;316.50;123.20;;;;;;;1.54;89.20;99491.48;420132;1314;97564;-41
2021/12/14 16:53:30;;;;;;;289.00;117.40;;;;;;;1.63;89.26;99484.90;420521;1313;111894;-41
2021/12/14 17:03:38;;;;;;;248.80;104.80;;;;;;;1.72;89.30;99480.71;419749;1314;109212;-42
2021/12/14 17:13:52;;;;;;;268.80;109.40;;;;;;;1.74;89.22;99476.08;420487;1314;98012;-43
2021/12/14 17:24:04;;;;;;;256.10;105.00;;;;;;;1.79;89.27;99481.57;416362;1313;110120;-41
2021/12/14 17:34:17;;;;;;;342.20;135.00;;;;;;;1.80;89.52;99486.98;420450;1313;97978;-42
2021/12/14 17:44:37;;;;;;;319.40;122.20;;;;;;;1.76;89.67;99494.36;420238;1314;108385;-41
2021/12/14 17:54:48;;;;;;;211.20;85.00;;;;;;;1.75;89.42;99501.91;420112;1313;97958;-42
2021/12/14 18:04:54;;;;;;;190.40;81.20;;;;;;;1.85;89.46;99518.30;420222;1313;97906;-43
2021/12/14 18:15:03;;;;;;;189.70;79.30;;;;;;;1.97;89.64;99522.32;419970;1314;108944;-42
2021/12/14 18:25:13;;;;;;;215.40;89.80;;;;;;;2.03;89.52;99520.59;420304;1312;97596;-40
2021/12/14 18:35:24;;;;;;;281.70;111.10;;;;;;;1.97;89.68;99526.39;420279;1313;111161;-42
2021/12/14 18:45:30;;;;;;;;;;;;;;;1.91;89.59;99525.56;420420;1313;107934;-41
2021/12/14 18:55:42;;;;;;;267.40;98.70;;;;;;;1.80;89.63;99536.66;419731;1314;97460;-41
2021/12/14 19:05:50;;;;;;;210.30;91.10;;;;;;;1.82;89.68;99538.46;419871;1313;97573;-42
2021/12/14 19:15:58;;;;;;;195.80;83.00;;;;;;;1.89;89.74;99534.80;420113;1313;108832;-42
2021/12/14 19:26:09;;;;;;;196.40;82.40;;;;;;;2.01;89.82;99541.26;420047;1313;97933;-41
2021/12/14 19:36:17;;;;;;;189.50;79.90;;;;;;;2.10;89.62;99550.95;420293;1312;111101;-39
2021/12/14 19:46:28;;;;;;;192.40;80.40;;;;;;;2.11;89.88;99557.23;420039;1312;109178;-42
2021/12/14 19:56:36;;;;;;;329.30;117.10;;;;;;;2.04;89.79;99562.17;420506;1313;97885;-40
2021/12/14 20:06:46;;;;;;;163.00;73.30;;;;;;;2.03;89.64;99569.02;420310;1313;111159;-41
2021/12/14 20:16:55;;;;;;;138.40;66.50;;;;;;;2.07;89.59;99575.37;420525;1313;108945;-42
2021/12/14 20:27:09;;;;;;;117.80;55.20;;;;;;;2.17;89.73;99577.92;420224;1313;97552;-41
2021/12/14 20:37:20;;;;;;;189.30;70.80;;;;;;;2.20;89.90;99581.08;420387;1313;109696;-43
2021/12/14 20:47:31;;;;;;;213.90;84.50;;;;;;;2.10;89.83;99576.83;420191;1313;97938;-41
2021/12/14 20:57:41;;;;;;;166.00;77.40;;;;;;;2.03;89.75;99582.26;419753;1313;97956;-41
2021/12/14 21:07:48;;;;;;;154.20;71.80;;;;;;;2.02;89.64;99590.91;420231;1313;108653;-42
2021/12/14 21:18:00;;;;;;;167.90;76.10;;;;;;;2.04;89.70;99591.41;420261;1313;97651;-41
2021/12/14 21:28:05;;;;;;;199.00;78.40;;;;;;;2.09;89.78;99585.35;420053;1313;111245;-41
2021/12/14 21:48:22;;;;;;;207.50;81.40;;;;;;;2.00;90.05;99595.77;420262;1313;97980;-42
2021/12/14 21:58:29;;;;;;;102.80;50.10;;;;;;;2.01;90.04;99611.38;420068;1312;111283;-42
2021/12/14 22:08:38;;;;;;;95.00;44.80;;;;;;;2.10;89.97;99613.20;420191;1313;109245;-43
2021/12/14 22:18:45;;;;;;;90.40;42.60;;;;;;;2.25;90.06;99603.39;420243;1313;97951;-42
2021/12/14 22:28:54;;;;;;;65.60;34.40;;;;;;;2.35;90.00;99606.67;420342;1312;109734;-42
2021/12/14 22:39:07;;;;;;;92.50;41.60;;;;;;;2.34;90.00;99611.86;419988;1313;109061;-43
2021/12/14 22:59:27;;;;;;;97.60;42.50;;;;;;;2.21;90.14;99620.64;420142;1312;109763;-41
2021/12/14 23:09:39;;;;;;;75.90;38.40;;;;;;;2.16;89.97;99620.26;420262;1312;108748;-41
2021/12/14 23:30:07;;;;;;;61.80;34.50;;;;;;;2.32;90.04;99608.55;420527;1313;111169;-42
2021/12/14 23:40:15;;;;;;;61.50;36.80;;;;;;;2.39;90.07;99604.61;420296;1313;108885;-43
2021/12/14 23:50:22;;;;;;;84.20;41.40;;;;;;;2.31;90.04;99621.20;420006;1312;98601;-42
